createdAt,value
2023-02-13T00:00:04.273Z,46.69
2023-02-13T00:03:06.785Z,46.35
2023-02-13T00:06:09.496Z,46.21
2023-02-13T00:09:11.639Z,46.31
2023-02-13T00:12:13.782Z,46.45
2023-02-13T00:15:15.766Z,46.16
2023-02-13T00:18:17.937Z,46.46
2023-02-13T00:21:20.000Z,46.00
2023-02-13T00:24:22.111Z,45.80
2023-02-13T00:27:24.203Z,46.13
2023-02-13T00:30:27.458Z,46.50
2023-02-13T00:33:30.453Z,46.40
2023-02-13T00:36:32.592Z,45.86
2023-02-13T00:39:34.579Z,46.45
2023-02-13T00:42:36.752Z,45.42
2023-02-13T00:45:38.725Z,45.58
2023-02-13T00:48:41.161Z,45.96
2023-02-13T00:51:43.249Z,46.25
2023-02-13T00:54:46.870Z,45.49
2023-02-13T00:57:48.940Z,46.29
2023-02-13T01:00:52.836Z,45.86
2023-02-13T01:03:54.940Z,46.63
2023-02-13T01:06:56.979Z,46.15
2023-02-13T01:09:59.001Z,46.76
2023-02-13T01:13:02.190Z,46.51
2023-02-13T01:16:04.790Z,46.54
2023-02-13T01:19:06.986Z,46.59
2023-02-13T01:22:09.685Z,47.25
2023-02-13T01:25:11.819Z,47.36
2023-02-13T01:28:14.401Z,46.87
2023-02-13T01:31:17.206Z,47.67
2023-02-13T01:34:19.415Z,47.91
2023-02-13T01:37:21.452Z,47.21
2023-02-13T01:40:23.433Z,47.64
2023-02-13T01:43:50.509Z,47.70
2023-02-13T01:46:52.587Z,47.31
2023-02-13T01:50:11.391Z,47.99
2023-02-13T01:53:34.052Z,47.60
2023-02-13T01:56:40.989Z,48.17
2023-02-13T01:59:53.192Z,48.65
2023-02-13T02:03:05.345Z,48.21
2023-02-13T02:06:11.652Z,48.08
2023-02-13T02:09:22.807Z,48.56
2023-02-13T02:12:32.330Z,47.90
2023-02-13T02:15:35.212Z,48.44
2023-02-13T02:18:39.203Z,48.13
2023-02-13T02:22:12.855Z,47.56
2023-02-13T02:25:45.744Z,47.20
2023-02-13T02:29:03.018Z,48.08
2023-02-13T02:32:23.591Z,47.67
2023-02-13T02:35:40.543Z,47.98
2023-02-13T02:39:10.183Z,47.87
2023-02-13T02:42:21.314Z,47.82
2023-02-13T02:45:31.976Z,48.24
2023-02-13T02:49:21.703Z,47.95
2023-02-13T02:52:48.876Z,47.45
2023-02-13T02:56:19.054Z,47.75
2023-02-13T02:59:41.567Z,48.29
2023-02-13T03:03:01.939Z,48.33
2023-02-13T03:06:12.114Z,47.89
2023-02-13T03:09:40.051Z,48.17
2023-02-13T03:13:09.785Z,48.27
2023-02-13T03:16:42.625Z,48.40
2023-02-13T03:20:26.051Z,48.40
2023-02-13T03:23:36.304Z,48.37
2023-02-13T03:27:09.403Z,48.56
2023-02-13T03:30:24.479Z,47.52
2023-02-13T03:33:26.438Z,48.00
2023-02-13T03:37:18.754Z,48.03
2023-02-13T03:41:04.654Z,48.10
2023-02-13T03:44:15.996Z,47.92
2023-02-13T03:47:18.167Z,48.07
2023-02-13T03:50:20.255Z,48.42
2023-02-13T03:53:24.668Z,48.41
2023-02-13T03:56:47.522Z,48.30
2023-02-13T03:59:49.821Z,48.23
2023-02-13T04:03:01.354Z,48.18
2023-02-13T04:06:21.207Z,48.79
2023-02-13T04:09:27.274Z,48.81
2023-02-13T04:12:37.822Z,48.62
2023-02-13T04:16:06.362Z,48.47
2023-02-13T04:19:10.049Z,48.02
2023-02-13T04:22:12.540Z,48.38
2023-02-13T04:25:17.648Z,48.82
2023-02-13T04:28:19.887Z,48.95
2023-02-13T04:31:22.765Z,48.80
2023-02-13T04:34:24.920Z,48.65
2023-02-13T04:37:27.057Z,49.02
2023-02-13T04:40:29.094Z,48.95
2023-02-13T04:43:31.113Z,50.13
2023-02-13T04:46:33.222Z,50.74
2023-02-13T04:49:35.255Z,50.40
2023-02-13T04:52:37.652Z,50.14
2023-02-13T04:55:39.645Z,50.81
2023-02-13T04:58:42.169Z,51.14
2023-02-13T05:01:44.304Z,50.30
2023-02-13T05:04:46.463Z,49.94
2023-02-13T05:07:48.666Z,49.39
2023-02-13T05:10:50.746Z,64.62
2023-02-13T05:13:52.698Z,73.81
2023-02-13T05:16:54.827Z,76.85
2023-02-13T05:19:56.925Z,77.93
2023-02-13T05:23:18.139Z,77.24
2023-02-13T05:26:20.296Z,83.10
2023-02-13T05:29:25.433Z,83.22
2023-02-13T05:32:27.491Z,85.30
2023-02-13T05:35:29.821Z,82.46
2023-02-13T05:38:31.835Z,80.50
2023-02-13T05:41:34.281Z,81.61
2023-02-13T05:44:36.273Z,84.56
2023-02-13T05:47:38.275Z,86.08
2023-02-13T05:50:40.397Z,78.81
2023-02-13T05:53:42.398Z,80.14
2023-02-13T05:56:44.641Z,82.74
2023-02-13T05:59:46.821Z,80.96
2023-02-13T06:02:59.031Z,78.29
2023-02-13T06:06:01.148Z,78.85
2023-02-13T06:09:03.605Z,54.56
2023-02-13T06:12:05.994Z,56.27
2023-02-13T06:15:08.293Z,52.07
2023-02-13T06:18:10.982Z,52.96
2023-02-13T06:21:13.055Z,54.56
2023-02-13T06:24:15.175Z,51.71
2023-02-13T06:27:17.157Z,50.95
2023-02-13T06:30:20.076Z,53.40
2023-02-13T06:33:21.983Z,53.49
2023-02-13T06:36:23.938Z,48.43
2023-02-13T06:39:25.920Z,49.67
2023-02-13T06:42:28.051Z,49.95
2023-02-13T06:45:30.053Z,51.24
2023-02-13T06:48:32.273Z,47.68
2023-02-13T06:51:34.428Z,47.92
2023-02-13T06:54:46.874Z,48.85
2023-02-13T06:57:49.698Z,48.48
2023-02-13T07:00:52.546Z,47.14
2023-02-13T07:03:54.726Z,48.21
2023-02-13T07:06:57.496Z,50.17
2023-02-13T07:10:00.695Z,45.98
2023-02-13T07:13:06.096Z,43.15
2023-02-13T07:16:08.422Z,45.17
2023-02-13T07:19:11.840Z,45.79
2023-02-13T07:22:13.882Z,42.63
2023-02-13T07:25:16.003Z,42.94
2023-02-13T07:28:18.048Z,44.50
2023-02-13T07:31:20.230Z,43.29
2023-02-13T07:34:23.633Z,41.27
2023-02-13T07:37:28.646Z,42.12
2023-02-13T07:40:31.229Z,42.90
2023-02-13T07:43:33.780Z,41.02
2023-02-13T07:46:37.556Z,39.44
2023-02-13T07:49:39.754Z,41.08
2023-02-13T07:52:41.745Z,42.13
2023-02-13T07:55:44.137Z,38.86
2023-02-13T07:58:46.313Z,38.85
2023-02-13T08:01:49.550Z,40.67
2023-02-13T08:04:51.768Z,39.79
2023-02-13T08:07:54.026Z,38.57
2023-02-13T08:11:15.285Z,38.82
2023-02-13T08:14:17.515Z,39.68
2023-02-13T08:17:19.506Z,37.28
2023-02-13T08:20:21.897Z,37.36
2023-02-13T08:23:23.988Z,37.62
2023-02-13T08:26:26.121Z,36.66
2023-02-13T08:29:28.127Z,35.67
2023-02-13T08:32:30.308Z,36.03
2023-02-13T08:35:32.453Z,37.58
2023-02-13T08:38:34.718Z,35.82
2023-02-13T08:41:36.822Z,36.27
2023-02-13T08:44:41.137Z,35.68
2023-02-13T08:47:43.230Z,37.89
2023-02-13T08:50:45.209Z,35.30
2023-02-13T08:53:47.658Z,35.36
2023-02-13T08:56:49.669Z,38.00
2023-02-13T08:59:51.588Z,37.36
2023-02-13T09:02:53.643Z,36.37
2023-02-13T09:05:59.693Z,37.86
2023-02-13T09:09:02.109Z,41.83
2023-02-13T09:12:04.271Z,71.98
2023-02-13T09:15:06.434Z,72.20
2023-02-13T09:18:08.585Z,75.53
2023-02-13T09:21:12.797Z,71.40
2023-02-13T09:24:14.886Z,68.54
2023-02-13T09:27:16.890Z,66.89
2023-02-13T09:30:23.963Z,67.45
2023-02-13T09:33:27.194Z,68.72
2023-02-13T09:36:29.208Z,65.14
2023-02-13T09:39:31.457Z,64.40
2023-02-13T09:42:37.195Z,65.27
2023-02-13T09:45:39.800Z,62.76
2023-02-13T09:48:45.590Z,63.42
2023-02-13T09:51:56.209Z,64.84
2023-02-13T09:54:58.357Z,63.74
2023-02-13T09:58:24.176Z,63.45
2023-02-13T10:01:33.070Z,65.80
2023-02-13T10:04:57.077Z,65.90
2023-02-13T10:08:20.688Z,66.63
2023-02-13T10:11:28.436Z,67.79
2023-02-13T10:14:42.646Z,65.38
2023-02-13T10:17:55.201Z,67.88
2023-02-13T10:21:02.469Z,70.24
2023-02-13T10:24:14.850Z,69.75
2023-02-13T10:27:25.284Z,68.25
2023-02-13T10:30:39.511Z,71.63
2023-02-13T10:34:00.828Z,72.50
2023-02-13T10:37:04.355Z,70.63
2023-02-13T10:40:13.681Z,74.80
2023-02-13T10:43:21.048Z,71.05
2023-02-13T10:46:36.852Z,74.17
2023-02-13T10:49:47.704Z,73.72
2023-02-13T10:53:13.085Z,72.57
2023-02-13T10:56:20.808Z,75.44
2023-02-13T10:59:31.723Z,71.98
2023-02-13T11:02:34.970Z,76.57
2023-02-13T11:05:39.689Z,74.56
2023-02-13T11:08:46.013Z,72.75
2023-02-13T11:11:48.118Z,75.08
2023-02-13T11:14:58.900Z,73.65
2023-02-13T11:18:12.568Z,75.90
2023-02-13T11:21:22.502Z,74.35
2023-02-13T11:24:26.819Z,75.04
2023-02-13T11:27:33.753Z,77.59
2023-02-13T11:30:38.561Z,74.03
2023-02-13T11:33:40.851Z,78.23
2023-02-13T11:36:43.042Z,76.60
2023-02-13T11:39:50.145Z,76.31
2023-02-13T11:42:53.074Z,80.33
2023-02-13T11:46:14.666Z,77.23
2023-02-13T11:49:22.158Z,87.90
2023-02-13T11:52:28.217Z,88.67
2023-02-13T11:55:36.513Z,86.25
2023-02-13T11:58:39.677Z,84.75
2023-02-13T12:01:43.072Z,82.86
2023-02-13T12:04:46.288Z,78.42
2023-02-13T12:07:48.782Z,72.70
2023-02-13T12:10:51.104Z,71.73
2023-02-13T12:13:53.253Z,71.26
2023-02-13T12:17:00.975Z,70.41
2023-02-13T12:20:04.215Z,68.86
2023-02-13T12:23:20.521Z,66.12
2023-02-13T12:26:44.158Z,66.51
2023-02-13T12:29:59.411Z,65.32
2023-02-13T12:33:03.332Z,64.05
2023-02-13T12:36:16.675Z,62.84
2023-02-13T12:39:42.700Z,64.23
2023-02-13T12:42:47.585Z,63.50
2023-02-13T12:45:52.412Z,62.44
2023-02-13T12:49:13.187Z,62.56
2023-02-13T12:52:15.367Z,62.84
2023-02-13T12:55:54.305Z,61.74
2023-02-13T12:59:05.123Z,60.19
2023-02-13T13:02:34.769Z,60.59
2023-02-13T13:05:50.669Z,61.65
2023-02-13T13:09:05.750Z,60.34
2023-02-13T13:12:23.064Z,60.85
2023-02-13T13:15:50.534Z,59.79
2023-02-13T13:19:02.350Z,60.57
2023-02-13T13:22:19.587Z,60.09
2023-02-13T13:25:29.769Z,60.96
2023-02-13T13:28:39.512Z,62.29
2023-02-13T13:31:53.507Z,62.54
2023-02-13T13:34:57.000Z,61.98
2023-02-13T13:38:06.760Z,62.23
2023-02-13T13:41:30.882Z,62.91
2023-02-13T13:44:38.671Z,62.49
2023-02-13T13:47:56.216Z,60.66
2023-02-13T13:50:59.466Z,60.91
2023-02-13T13:54:08.251Z,60.86
2023-02-13T13:57:12.456Z,58.70
2023-02-13T14:00:16.484Z,59.00
2023-02-13T14:03:24.989Z,59.06
2023-02-13T14:06:45.598Z,59.18
2023-02-13T14:09:47.898Z,58.81
2023-02-13T14:13:10.394Z,59.01
2023-02-13T14:16:12.713Z,59.39
2023-02-13T14:19:39.164Z,59.00
2023-02-13T14:22:44.861Z,58.51
2023-02-13T14:25:47.789Z,58.37
2023-02-13T14:28:50.432Z,63.56
2023-02-13T14:32:01.899Z,65.84
2023-02-13T14:35:17.158Z,65.70
2023-02-13T14:38:25.310Z,65.02
2023-02-13T14:41:46.336Z,63.09
2023-02-13T14:44:53.605Z,61.72
2023-02-13T14:47:57.725Z,60.92
2023-02-13T14:51:05.753Z,61.04
2023-02-13T14:54:32.419Z,60.05
2023-02-13T14:57:44.260Z,60.38
2023-02-13T15:00:53.719Z,60.34
2023-02-13T15:04:12.876Z,60.88
2023-02-13T15:07:18.045Z,59.92
2023-02-13T15:10:49.692Z,60.70
2023-02-13T15:13:51.682Z,60.45
2023-02-13T15:17:18.403Z,59.94
2023-02-13T15:20:26.562Z,60.54
2023-02-13T15:23:34.873Z,60.11
2023-02-13T15:26:37.144Z,60.41
2023-02-13T15:29:54.466Z,60.71
2023-02-13T15:33:21.486Z,60.29
2023-02-13T15:36:26.468Z,60.95
2023-02-13T15:39:31.359Z,60.86
2023-02-13T15:42:33.537Z,59.34
2023-02-13T15:45:35.605Z,58.12
2023-02-13T15:48:38.146Z,56.84
2023-02-13T15:51:40.272Z,55.97
2023-02-13T15:54:50.003Z,56.01
2023-02-13T15:57:55.146Z,55.47
2023-02-13T16:01:01.651Z,55.11
2023-02-13T16:04:07.655Z,57.68
2023-02-13T16:07:13.251Z,58.00
2023-02-13T16:10:31.425Z,58.98
2023-02-13T16:13:33.626Z,59.48
2023-02-13T16:16:53.318Z,59.19
2023-02-13T16:20:00.152Z,58.72
2023-02-13T16:23:06.594Z,59.69
2023-02-13T16:26:15.646Z,60.75
2023-02-13T16:29:23.879Z,62.49
2023-02-13T16:32:32.218Z,65.56
2023-02-13T16:35:40.873Z,63.79
2023-02-13T16:38:47.796Z,62.69
2023-02-13T16:41:50.816Z,62.27
2023-02-13T16:45:23.065Z,62.13
2023-02-13T16:48:25.372Z,62.32
2023-02-13T16:51:30.473Z,62.17
2023-02-13T16:54:44.382Z,63.31
2023-02-13T16:57:46.647Z,63.63
2023-02-13T17:00:51.438Z,65.28
2023-02-13T17:03:54.354Z,68.72
2023-02-13T17:06:56.503Z,72.94
2023-02-13T17:10:05.489Z,70.95
2023-02-13T17:13:13.131Z,69.13
2023-02-13T17:16:15.267Z,68.40
2023-02-13T17:19:17.292Z,76.33
2023-02-13T17:22:30.856Z,68.74
2023-02-13T17:25:35.967Z,66.79
2023-02-13T17:28:38.156Z,64.13
2023-02-13T17:31:41.817Z,60.48
2023-02-13T17:34:46.630Z,59.11
2023-02-13T17:37:48.699Z,100.00
2023-02-13T17:40:50.881Z,95.97
2023-02-13T17:43:52.984Z,77.89
2023-02-13T17:46:55.299Z,69.80
2023-02-13T17:50:08.528Z,71.26
2023-02-13T17:53:32.913Z,72.73
2023-02-13T17:56:35.055Z,100.00
2023-02-13T17:59:37.788Z,100.00
2023-02-13T18:02:39.897Z,80.50
2023-02-13T18:05:42.114Z,80.92
2023-02-13T18:08:44.092Z,80.54
2023-02-13T18:12:04.529Z,82.43
2023-02-13T18:15:09.827Z,83.62
2023-02-13T18:18:16.129Z,83.41
2023-02-13T18:21:21.724Z,83.05
2023-02-13T18:24:28.732Z,83.70
2023-02-13T18:27:30.992Z,83.58
2023-02-13T18:30:33.197Z,81.37
2023-02-13T18:33:36.212Z,80.51
2023-02-13T18:36:38.710Z,79.66
2023-02-13T18:39:40.740Z,78.91
2023-02-13T18:42:42.775Z,77.51
2023-02-13T18:45:46.083Z,77.42
2023-02-13T18:48:48.422Z,76.60
2023-02-13T18:51:51.381Z,76.30
2023-02-13T18:54:54.548Z,76.74
2023-02-13T18:57:57.542Z,75.92
2023-02-13T19:01:11.497Z,76.69
2023-02-13T19:04:13.626Z,78.04
2023-02-13T19:07:17.033Z,77.67
2023-02-13T19:10:19.202Z,78.98
2023-02-13T19:13:22.813Z,78.42
2023-02-13T19:16:25.222Z,79.04
2023-02-13T19:19:31.453Z,80.34
2023-02-13T19:22:34.048Z,79.44
2023-02-13T19:25:38.222Z,78.38
2023-02-13T19:28:41.084Z,80.67
2023-02-13T19:31:43.315Z,77.71
2023-02-13T19:34:48.610Z,74.16
2023-02-13T19:37:50.572Z,69.44
2023-02-13T19:40:54.385Z,75.13
2023-02-13T19:43:56.805Z,77.76
2023-02-13T19:46:58.924Z,80.79
2023-02-13T19:50:01.037Z,80.62
2023-02-13T19:53:04.441Z,81.29
2023-02-13T19:56:09.073Z,82.11
2023-02-13T19:59:13.589Z,81.96
2023-02-13T20:02:17.343Z,82.63
2023-02-13T20:05:19.740Z,80.59
2023-02-13T20:08:21.757Z,79.79
2023-02-13T20:11:24.029Z,79.27
2023-02-13T20:14:27.207Z,80.06
2023-02-13T20:17:29.230Z,78.32
2023-02-13T20:20:31.211Z,77.34
2023-02-13T20:23:33.385Z,76.68
2023-02-13T20:26:40.674Z,76.31
2023-02-13T20:29:58.870Z,75.78
2023-02-13T20:33:09.099Z,75.26
2023-02-13T20:36:14.234Z,74.26
2023-02-13T20:39:17.265Z,73.83
2023-02-13T20:42:23.886Z,73.47
2023-02-13T20:45:28.849Z,72.88
2023-02-13T20:48:38.939Z,72.51
2023-02-13T20:51:42.914Z,71.53
2023-02-13T20:54:47.227Z,71.75
2023-02-13T20:57:54.475Z,69.81
2023-02-13T21:01:03.205Z,69.11
2023-02-13T21:04:11.495Z,69.40
2023-02-13T21:07:15.065Z,68.40
2023-02-13T21:10:18.161Z,68.17
2023-02-13T21:13:20.214Z,68.73
2023-02-13T21:16:25.363Z,67.57
2023-02-13T21:19:27.455Z,66.63
2023-02-13T21:22:31.324Z,66.79
2023-02-13T21:25:33.632Z,66.17
2023-02-13T21:28:37.043Z,65.61
2023-02-13T21:31:49.199Z,67.24
2023-02-13T21:34:51.475Z,65.29
2023-02-13T21:37:55.200Z,60.49
2023-02-13T21:41:13.784Z,54.04
2023-02-13T21:44:16.932Z,53.53
2023-02-13T21:47:19.117Z,50.21
2023-02-13T21:50:22.394Z,48.63
2023-02-13T21:53:24.464Z,49.23
2023-02-13T21:56:29.765Z,47.55
2023-02-13T21:59:32.820Z,47.11
2023-02-13T22:02:34.954Z,47.68
2023-02-13T22:05:37.065Z,46.02
2023-02-13T22:08:39.494Z,44.87
2023-02-13T22:11:44.729Z,44.96
2023-02-13T22:14:46.704Z,48.62
2023-02-13T22:17:48.767Z,50.01
2023-02-13T22:20:51.428Z,51.86
2023-02-13T22:23:53.473Z,52.31
2023-02-13T22:26:55.834Z,51.97
2023-02-13T22:29:57.866Z,52.41
2023-02-13T22:33:00.229Z,52.96
2023-02-13T22:36:02.400Z,52.46
2023-02-13T22:39:05.368Z,52.73
2023-02-13T22:42:07.503Z,52.12
2023-02-13T22:45:09.822Z,52.80
2023-02-13T22:48:11.848Z,52.22
2023-02-13T22:51:17.656Z,52.30
2023-02-13T22:54:19.726Z,52.40
2023-02-13T22:57:21.918Z,52.71
2023-02-13T23:00:24.303Z,53.17
2023-02-13T23:03:26.368Z,54.22
2023-02-13T23:06:29.039Z,53.02
2023-02-13T23:09:31.080Z,52.41
2023-02-13T23:12:40.707Z,51.95
2023-02-13T23:15:42.976Z,52.48
2023-02-13T23:18:50.152Z,52.82
2023-02-13T23:21:52.221Z,52.96
2023-02-13T23:24:54.272Z,53.98
2023-02-13T23:27:59.408Z,53.68
2023-02-13T23:31:03.123Z,53.87
2023-02-13T23:34:05.437Z,54.08
2023-02-13T23:37:07.447Z,54.01
2023-02-13T23:40:12.248Z,54.33
2023-02-13T23:43:14.257Z,54.41
2023-02-13T23:46:16.241Z,55.21
2023-02-13T23:49:18.595Z,54.59
2023-02-13T23:52:20.949Z,54.31
2023-02-13T23:55:23.049Z,53.71
2023-02-13T23:58:25.084Z,53.42
